createdAt,value
2023-02-22T00:00:02.268Z,51.92
2023-02-22T00:01:02.252Z,51.92
2023-02-22T00:03:02.223Z,52.11
2023-02-22T00:04:02.224Z,52.01
2023-02-22T00:05:02.285Z,52.18
2023-02-22T00:06:02.223Z,52.14
2023-02-22T00:08:02.242Z,52.16
2023-02-22T00:09:02.334Z,52.18
2023-02-22T00:10:02.278Z,52.26
2023-02-22T00:11:02.273Z,52.31
2023-02-22T00:12:02.288Z,52.58
2023-02-22T00:13:02.277Z,52.58
2023-02-22T00:14:02.293Z,52.42
2023-02-22T00:15:02.297Z,52.49
2023-02-22T00:16:02.298Z,52.49
2023-02-22T00:17:02.299Z,52.53
2023-02-22T00:19:02.267Z,52.86
2023-02-22T00:20:02.295Z,52.88
2023-02-22T00:21:02.282Z,52.79
2023-02-22T00:22:02.278Z,52.86
2023-02-22T00:23:02.295Z,52.86
2023-02-22T00:24:02.320Z,52.95
2023-02-22T00:25:02.351Z,53.03
2023-02-22T00:26:02.283Z,53.03
2023-02-22T00:27:02.312Z,53.23
2023-02-22T00:28:02.352Z,53.27
2023-02-22T00:29:02.336Z,53.43
2023-02-22T00:30:02.311Z,53.38
2023-02-22T00:31:02.529Z,53.49
2023-02-22T00:32:02.430Z,53.64
2023-02-22T00:33:02.362Z,53.69
2023-02-22T00:34:02.298Z,53.71
2023-02-22T00:36:02.394Z,53.79
2023-02-22T00:37:02.354Z,53.71
2023-02-22T00:38:02.306Z,53.74
2023-02-22T00:41:02.355Z,53.69
2023-02-22T00:42:02.348Z,53.69
2023-02-22T00:43:02.383Z,53.61
2023-02-22T00:45:02.325Z,53.59
2023-02-22T00:46:02.454Z,53.63
2023-02-22T00:48:02.354Z,53.61
2023-02-22T00:50:02.327Z,53.66
2023-02-22T00:53:02.349Z,53.70
2023-02-22T00:54:02.384Z,53.72
2023-02-22T00:55:02.380Z,53.72
2023-02-22T00:56:02.393Z,53.72
2023-02-22T00:57:02.387Z,53.84
2023-02-22T00:58:02.400Z,53.81
2023-02-22T00:59:02.363Z,53.85
2023-02-22T01:01:02.493Z,53.82
2023-02-22T01:03:02.443Z,53.73
2023-02-22T01:08:02.419Z,53.75
2023-02-22T01:09:02.427Z,53.68
2023-02-22T01:10:02.421Z,53.70
2023-02-22T01:11:02.476Z,53.79
2023-02-22T01:12:02.392Z,53.81
2023-02-22T01:13:02.422Z,53.79
2023-02-22T01:14:02.423Z,53.79
2023-02-22T01:15:02.430Z,53.85
2023-02-22T01:16:02.467Z,54.08
2023-02-22T01:17:02.389Z,54.08
2023-02-22T01:19:02.448Z,54.19
2023-02-22T01:20:02.501Z,54.28
2023-02-22T01:21:02.442Z,54.47
2023-02-22T01:23:02.406Z,54.43
2023-02-22T01:24:02.424Z,54.49
2023-02-22T01:25:02.428Z,54.49
2023-02-22T01:26:02.428Z,54.51
2023-02-22T01:27:02.478Z,54.60
2023-02-22T01:28:02.434Z,54.53
2023-02-22T01:29:02.460Z,54.59
2023-02-22T01:30:02.466Z,54.59
2023-02-22T01:31:02.638Z,54.67
2023-02-22T01:32:02.538Z,54.81
2023-02-22T01:33:02.486Z,54.85
2023-02-22T01:34:02.465Z,54.85
2023-02-22T01:35:02.471Z,54.90
2023-02-22T01:36:02.440Z,55.07
2023-02-22T01:37:02.480Z,55.11
2023-02-22T01:39:02.524Z,55.20
2023-02-22T01:40:02.444Z,55.25
2023-02-22T01:41:02.497Z,55.17
2023-02-22T01:42:02.462Z,55.17
2023-02-22T01:43:02.450Z,55.04
2023-02-22T01:44:02.493Z,54.88
2023-02-22T01:45:02.458Z,54.88
2023-02-22T01:48:02.538Z,54.74
2023-02-22T01:49:02.536Z,54.71
2023-02-22T01:50:02.472Z,54.71
2023-02-22T01:51:02.532Z,54.87
2023-02-22T01:52:02.513Z,54.87
2023-02-22T01:53:02.514Z,54.83
2023-02-22T01:54:02.515Z,54.97
2023-02-22T01:55:02.475Z,55.02
2023-02-22T01:56:02.495Z,55.09
2023-02-22T01:57:02.488Z,55.17
2023-02-22T01:59:02.605Z,55.22
2023-02-22T02:01:02.499Z,55.23
2023-02-22T02:02:02.553Z,55.28
2023-02-22T02:03:02.538Z,55.36
2023-02-22T02:04:02.629Z,55.36
2023-02-22T02:05:02.589Z,55.31
2023-02-22T02:07:02.564Z,55.61
2023-02-22T02:08:02.545Z,55.61
2023-02-22T02:09:02.517Z,55.57
2023-02-22T02:10:02.525Z,55.45
2023-02-22T02:12:02.613Z,55.63
2023-02-22T02:13:02.565Z,55.63
2023-02-22T02:14:02.534Z,55.63
2023-02-22T02:18:02.552Z,55.50
2023-02-22T02:19:02.542Z,55.61
2023-02-22T02:20:02.588Z,55.90
2023-02-22T02:21:02.616Z,55.88
2023-02-22T02:23:02.584Z,55.76
2023-02-22T02:24:02.592Z,55.76
2023-02-22T02:25:02.588Z,55.64
2023-02-22T02:26:02.605Z,55.62
2023-02-22T02:27:02.594Z,55.63
2023-02-22T02:29:02.586Z,55.67
2023-02-22T02:30:02.576Z,55.67
2023-02-22T02:31:02.597Z,55.52
2023-02-22T02:32:02.750Z,55.46
2023-02-22T02:33:02.575Z,55.46
2023-02-22T02:34:02.591Z,55.66
2023-02-22T02:35:02.620Z,55.66
2023-02-22T02:36:02.610Z,56.00
2023-02-22T02:37:02.663Z,56.50
2023-02-22T02:38:02.602Z,56.54
2023-02-22T02:39:02.595Z,56.54
2023-02-22T02:42:02.642Z,55.84
2023-02-22T02:43:02.634Z,55.84
2023-02-22T02:44:02.645Z,55.57
2023-02-22T02:45:02.690Z,55.47
2023-02-22T02:47:02.665Z,55.32
2023-02-22T02:48:02.649Z,55.40
2023-02-22T02:49:02.660Z,55.42
2023-02-22T02:50:02.692Z,55.41
2023-02-22T02:51:02.663Z,55.41
2023-02-22T02:52:02.669Z,55.64
2023-02-22T02:53:02.628Z,55.64
2023-02-22T02:54:02.660Z,55.61
2023-02-22T02:55:02.630Z,55.85
2023-02-22T02:56:02.635Z,55.97
2023-02-22T02:57:02.651Z,55.92
2023-02-22T02:59:02.645Z,55.87
2023-02-22T03:00:02.674Z,55.87
2023-02-22T03:01:02.681Z,55.97
2023-02-22T03:03:02.723Z,56.22
2023-02-22T03:04:02.657Z,56.20
2023-02-22T03:06:02.694Z,56.26
2023-02-22T03:07:02.760Z,56.10
2023-02-22T03:09:02.680Z,56.02
2023-02-22T03:10:02.712Z,56.17
2023-02-22T03:12:02.723Z,55.97
2023-02-22T03:13:02.717Z,55.97
2023-02-22T03:14:02.719Z,55.98
2023-02-22T03:15:02.694Z,55.98
2023-02-22T03:16:02.894Z,56.16
2023-02-22T03:17:02.716Z,56.16
2023-02-22T03:18:02.756Z,56.16
2023-02-22T03:19:02.701Z,56.19
2023-02-22T03:22:02.742Z,56.28
2023-02-22T03:25:02.755Z,56.38
2023-02-22T03:26:02.762Z,56.33
2023-02-22T03:27:02.749Z,56.33
2023-02-22T03:28:02.728Z,56.46
2023-02-22T03:29:02.757Z,56.34
2023-02-22T03:30:02.755Z,56.32
2023-02-22T03:31:02.772Z,56.29
2023-02-22T03:33:02.770Z,56.44
2023-02-22T03:35:02.732Z,56.33
2023-02-22T03:36:02.742Z,56.30
2023-02-22T03:37:02.772Z,56.35
2023-02-22T03:38:02.731Z,56.35
2023-02-22T03:39:02.758Z,56.44
2023-02-22T03:40:02.752Z,56.44
2023-02-22T03:41:02.742Z,56.39
2023-02-22T03:42:02.802Z,56.07
2023-02-22T03:43:02.791Z,56.05
2023-02-22T03:44:02.785Z,56.05
2023-02-22T03:47:02.812Z,56.24
2023-02-22T03:48:02.773Z,56.29
2023-02-22T03:49:02.805Z,56.33
2023-02-22T03:50:02.809Z,56.33
2023-02-22T03:51:02.832Z,56.48
2023-02-22T03:53:02.810Z,56.47
2023-02-22T03:54:02.829Z,56.46
2023-02-22T03:55:02.817Z,56.45
2023-02-22T03:59:02.841Z,56.45
2023-02-22T04:00:02.837Z,56.45
2023-02-22T04:02:02.852Z,56.51
2023-02-22T04:03:02.897Z,56.47
2023-02-22T04:04:02.853Z,56.47
2023-02-22T04:06:02.803Z,56.42
2023-02-22T04:07:02.807Z,56.42
2023-02-22T04:08:02.875Z,56.53
2023-02-22T04:12:02.876Z,56.58
2023-02-22T04:13:02.835Z,56.50
2023-02-22T04:15:02.892Z,56.39
2023-02-22T04:16:03.018Z,56.27
2023-02-22T04:17:02.861Z,56.16
2023-02-22T04:18:02.837Z,56.03
2023-02-22T04:19:02.843Z,56.07
2023-02-22T04:20:02.904Z,56.08
2023-02-22T04:21:02.861Z,56.07
2023-02-22T04:22:02.895Z,55.71
2023-02-22T04:23:02.891Z,55.71
2023-02-22T04:25:02.919Z,55.72
2023-02-22T04:26:02.888Z,55.72
2023-02-22T04:27:02.899Z,55.71
2023-02-22T04:30:02.909Z,55.72
2023-02-22T04:31:03.005Z,55.76
2023-02-22T04:32:02.890Z,55.76
2023-02-22T04:33:02.905Z,55.76
2023-02-22T04:34:02.909Z,55.76
2023-02-22T04:35:02.909Z,55.88
2023-02-22T04:36:02.913Z,56.03
2023-02-22T04:37:02.917Z,56.03
2023-02-22T04:38:02.886Z,56.18
2023-02-22T04:39:03.700Z,55.98
2023-02-22T04:40:02.930Z,55.93
2023-02-22T04:41:02.896Z,55.92
2023-02-22T04:44:02.909Z,55.94
2023-02-22T04:45:02.935Z,56.00
2023-02-22T04:46:02.944Z,56.10
2023-02-22T04:47:02.907Z,55.99
2023-02-22T04:50:02.961Z,56.04
2023-02-22T04:52:02.963Z,56.03
2023-02-22T04:53:02.989Z,56.04
2023-02-22T04:54:02.975Z,56.04
2023-02-22T04:57:02.989Z,55.96
2023-02-22T04:58:02.966Z,56.03
2023-02-22T04:59:02.977Z,56.03
2023-02-22T05:00:02.986Z,56.07
2023-02-22T05:01:02.979Z,55.92
2023-02-22T05:02:02.993Z,55.92
2023-02-22T05:03:03.023Z,56.06
2023-02-22T05:06:03.014Z,56.18
2023-02-22T05:08:02.990Z,56.08
2023-02-22T05:10:02.993Z,56.19
2023-02-22T05:11:02.994Z,56.19
2023-02-22T05:12:03.017Z,56.16
2023-02-22T05:14:03.016Z,56.03
2023-02-22T05:15:02.970Z,56.16
2023-02-22T05:17:02.997Z,56.20
2023-02-22T05:19:03.072Z,56.21
2023-02-22T05:21:02.984Z,56.15
2023-02-22T05:22:03.035Z,55.93
2023-02-22T05:23:03.023Z,55.91
2023-02-22T05:24:03.010Z,55.94
2023-02-22T05:25:02.990Z,55.87
2023-02-22T05:26:03.002Z,55.77
2023-02-22T05:28:04.166Z,55.78
2023-02-22T05:29:03.003Z,55.78
2023-02-22T05:30:03.042Z,55.69
2023-02-22T05:31:03.123Z,55.66
2023-02-22T05:33:03.093Z,55.71
2023-02-22T05:34:03.056Z,55.62
2023-02-22T05:35:03.059Z,55.67
2023-02-22T05:36:03.088Z,55.81
2023-02-22T05:37:03.075Z,55.81
2023-02-22T05:38:03.082Z,55.91
2023-02-22T05:40:03.086Z,55.94
2023-02-22T05:42:03.069Z,55.99
2023-02-22T05:43:03.091Z,55.91
2023-02-22T05:44:03.082Z,55.91
2023-02-22T05:45:03.111Z,56.00
2023-02-22T05:49:03.113Z,56.04
2023-02-22T05:51:03.058Z,56.06
2023-02-22T05:52:03.130Z,56.12
2023-02-22T05:53:03.109Z,56.10
2023-02-22T05:56:03.118Z,56.02
2023-02-22T05:58:03.100Z,55.96
2023-02-22T05:59:03.076Z,55.99
2023-02-22T06:00:03.125Z,56.11
2023-02-22T06:01:03.513Z,56.05
2023-02-22T06:02:03.181Z,56.02
2023-02-22T06:03:03.119Z,55.88
2023-02-22T06:06:03.113Z,56.00
2023-02-22T06:07:03.135Z,55.98
2023-02-22T06:08:03.149Z,55.95
2023-02-22T06:09:03.124Z,55.95
2023-02-22T06:10:03.131Z,56.06
2023-02-22T06:11:03.177Z,56.11
2023-02-22T06:13:03.200Z,56.12
2023-02-22T06:14:03.127Z,56.12
2023-02-22T06:17:03.180Z,56.28
2023-02-22T06:18:03.150Z,56.27
2023-02-22T06:19:03.202Z,56.20
2023-02-22T06:20:03.158Z,56.29
2023-02-22T06:24:03.190Z,56.34
2023-02-22T06:25:03.142Z,56.32
2023-02-22T06:26:03.198Z,56.32
2023-02-22T06:27:03.235Z,56.13
2023-02-22T06:28:03.224Z,56.13
2023-02-22T06:29:03.196Z,56.33
2023-02-22T06:30:03.220Z,56.38
2023-02-22T06:31:03.242Z,56.38
2023-02-22T06:32:03.398Z,56.44
2023-02-22T06:33:03.175Z,56.44
2023-02-22T06:34:03.198Z,56.59
2023-02-22T06:35:03.155Z,56.59
2023-02-22T06:36:03.249Z,56.67
2023-02-22T06:37:03.184Z,56.67
2023-02-22T06:39:03.261Z,56.64
2023-02-22T06:40:05.714Z,56.56
2023-02-22T06:41:03.310Z,56.58
2023-02-22T06:42:03.218Z,56.60
2023-02-22T06:43:03.188Z,56.60
2023-02-22T06:44:03.269Z,56.94
2023-02-22T06:45:03.273Z,56.57
2023-02-22T06:46:03.333Z,56.42
2023-02-22T06:47:03.196Z,56.42
2023-02-22T06:48:03.236Z,56.40
2023-02-22T06:49:03.280Z,56.25
2023-02-22T06:50:04.556Z,56.25
2023-02-22T06:51:03.278Z,56.55
2023-02-22T06:52:03.194Z,56.55
2023-02-22T06:53:03.188Z,56.67
2023-02-22T06:54:03.293Z,56.52
2023-02-22T06:55:03.275Z,56.48
2023-02-22T06:56:03.295Z,56.36
2023-02-22T06:57:03.200Z,56.36
2023-02-22T06:58:03.306Z,56.22
2023-02-22T07:00:03.268Z,56.17
2023-02-22T07:01:03.355Z,56.14
2023-02-22T07:02:03.312Z,56.13
2023-02-22T07:03:03.261Z,56.10
2023-02-22T07:04:03.251Z,56.06
2023-02-22T07:05:03.234Z,56.06
2023-02-22T07:06:03.320Z,55.83
2023-02-22T07:07:03.293Z,55.74
2023-02-22T07:08:03.239Z,55.74
2023-02-22T07:09:03.299Z,55.77
2023-02-22T07:10:03.317Z,55.75
2023-02-22T07:11:03.310Z,55.71
2023-02-22T07:12:03.289Z,55.68
2023-02-22T07:13:03.320Z,55.68
2023-02-22T07:14:03.264Z,55.58
2023-02-22T07:15:03.412Z,55.60
2023-02-22T07:16:03.557Z,55.62
2023-02-22T07:17:03.389Z,55.76
2023-02-22T07:18:03.319Z,55.76
2023-02-22T07:19:03.420Z,55.80
2023-02-22T07:20:03.432Z,55.73
2023-02-22T07:21:03.400Z,55.76
2023-02-22T07:22:03.333Z,55.76
2023-02-22T07:23:03.339Z,55.62
2023-02-22T07:24:05.177Z,55.60
2023-02-22T07:25:03.352Z,55.60
2023-02-22T07:26:03.359Z,55.41
2023-02-22T07:27:03.352Z,55.25
2023-02-22T07:28:03.355Z,54.95
2023-02-22T07:29:03.398Z,54.68
2023-02-22T07:30:03.355Z,54.68
2023-02-22T07:31:03.351Z,54.46
2023-02-22T07:32:03.407Z,53.92
2023-02-22T07:33:03.454Z,53.53
2023-02-22T07:34:03.353Z,53.11
2023-02-22T07:35:03.365Z,53.18
2023-02-22T07:36:03.394Z,53.03
2023-02-22T07:37:03.315Z,53.03
2023-02-22T07:38:03.335Z,52.95
2023-02-22T07:39:03.330Z,52.86
2023-02-22T07:40:03.311Z,52.56
2023-02-22T07:41:03.431Z,51.02
2023-02-22T07:42:03.350Z,50.95
2023-02-22T07:43:05.308Z,51.09
2023-02-22T07:44:03.371Z,51.09
2023-02-22T07:45:03.382Z,51.41
2023-02-22T07:46:03.537Z,51.41
2023-02-22T07:47:03.344Z,50.88
2023-02-22T07:48:03.364Z,50.79
2023-02-22T07:49:03.358Z,50.60
2023-02-22T07:50:03.367Z,50.11
2023-02-22T07:51:03.412Z,49.77
2023-02-22T07:52:03.393Z,49.77
2023-02-22T07:53:03.365Z,48.15
2023-02-22T07:54:03.409Z,47.90
2023-02-22T07:55:03.390Z,47.90
2023-02-22T07:56:03.446Z,47.08
2023-02-22T07:57:03.401Z,47.08
2023-02-22T07:58:03.425Z,46.85
2023-02-22T07:59:03.367Z,46.92
2023-02-22T08:00:03.377Z,46.92
2023-02-22T08:01:03.502Z,47.25
2023-02-22T08:02:03.416Z,47.25
2023-02-22T08:03:03.422Z,47.24
2023-02-22T08:04:03.468Z,46.83
2023-02-22T08:05:03.436Z,46.80
2023-02-22T08:06:03.452Z,46.80
2023-02-22T08:07:03.438Z,45.90
2023-02-22T08:08:03.425Z,45.90
2023-02-22T08:09:03.476Z,44.51
2023-02-22T08:10:03.448Z,43.78
2023-02-22T08:11:03.495Z,43.55
2023-02-22T08:12:03.411Z,43.55
2023-02-22T08:13:03.436Z,42.90
2023-02-22T08:14:03.457Z,42.90
2023-02-22T08:15:03.453Z,41.19
2023-02-22T08:16:03.481Z,38.79
2023-02-22T08:17:03.481Z,38.46
2023-02-22T08:18:03.424Z,37.42
2023-02-22T08:19:03.446Z,35.91
2023-02-22T08:20:03.466Z,35.25
2023-02-22T08:21:03.437Z,35.35
2023-02-22T08:22:03.457Z,35.20
2023-02-22T08:23:03.511Z,35.20
2023-02-22T08:24:03.476Z,33.33
2023-02-22T08:25:03.498Z,32.00
2023-02-22T08:26:03.474Z,31.02
2023-02-22T08:27:03.479Z,30.16
2023-02-22T08:28:03.484Z,30.16
2023-02-22T08:29:03.444Z,28.24
2023-02-22T08:30:03.505Z,27.63
2023-02-22T08:31:03.507Z,27.12
2023-02-22T08:32:03.638Z,26.55
2023-02-22T08:33:03.646Z,26.00
2023-02-22T08:34:03.626Z,25.46
2023-02-22T08:35:03.525Z,25.06
2023-02-22T08:36:03.467Z,24.99
2023-02-22T08:37:03.470Z,25.08
2023-02-22T08:38:03.468Z,25.08
2023-02-22T08:39:03.521Z,24.12
2023-02-22T08:40:03.479Z,23.96
2023-02-22T08:41:03.497Z,23.96
2023-02-22T08:42:03.480Z,23.63
2023-02-22T08:43:03.549Z,22.91
2023-02-22T08:44:03.518Z,22.42
2023-02-22T08:45:03.524Z,22.42
2023-02-22T08:46:03.559Z,22.31
2023-02-22T08:47:03.490Z,21.49
2023-02-22T08:48:03.585Z,21.46
2023-02-22T08:49:03.586Z,21.42
2023-02-22T08:50:03.502Z,21.45
2023-02-22T08:51:03.536Z,21.45
2023-02-22T08:52:03.554Z,21.37
2023-02-22T08:53:03.549Z,21.37
2023-02-22T08:54:03.514Z,21.52
2023-02-22T08:55:03.534Z,21.52
2023-02-22T08:56:03.580Z,21.21
2023-02-22T08:57:03.539Z,20.91
2023-02-22T08:58:03.611Z,20.67
2023-02-22T08:59:03.522Z,20.22
2023-02-22T09:00:03.531Z,20.00
2023-02-22T09:01:03.596Z,19.93
2023-02-22T09:02:03.577Z,19.66
2023-02-22T09:03:03.537Z,19.33
2023-02-22T09:04:03.575Z,19.33
2023-02-22T09:05:03.528Z,19.31
2023-02-22T09:06:03.655Z,19.15
2023-02-22T09:07:03.569Z,19.15
2023-02-22T09:08:03.615Z,18.67
2023-02-22T09:09:03.616Z,18.66
2023-02-22T09:10:03.542Z,18.66
2023-02-22T09:11:03.588Z,18.40
2023-02-22T09:12:03.590Z,18.40
2023-02-22T09:13:03.570Z,18.14
2023-02-22T09:14:03.668Z,18.37
2023-02-22T09:15:03.616Z,18.12
2023-02-22T09:16:03.612Z,18.38
2023-02-22T09:17:05.794Z,18.53
2023-02-22T09:18:03.622Z,18.53
2023-02-22T09:19:03.669Z,18.19
2023-02-22T09:20:03.597Z,18.19
2023-02-22T09:21:03.632Z,18.23
2023-02-22T09:22:03.625Z,18.41
2023-02-22T09:23:03.632Z,18.63
2023-02-22T09:24:03.650Z,18.73
2023-02-22T09:25:16.006Z,18.46
2023-02-22T09:26:03.615Z,18.46
2023-02-22T09:27:03.619Z,18.39
2023-02-22T09:28:03.607Z,18.93
2023-02-22T09:29:03.625Z,18.80
2023-02-22T09:30:03.643Z,18.80
2023-02-22T09:31:03.645Z,18.90
2023-02-22T09:32:03.892Z,19.09
2023-02-22T09:33:04.526Z,19.50
2023-02-22T09:34:04.408Z,19.50
2023-02-22T09:35:03.606Z,19.14
2023-02-22T09:36:03.663Z,19.14
2023-02-22T09:37:03.619Z,18.49
2023-02-22T09:38:03.631Z,18.44
2023-02-22T09:39:03.950Z,18.27
2023-02-22T09:40:03.689Z,18.02
2023-02-22T09:41:03.662Z,18.02
2023-02-22T09:42:03.685Z,17.71
2023-02-22T09:43:03.632Z,17.71
2023-02-22T09:44:03.708Z,17.36
2023-02-22T09:45:03.653Z,17.16
2023-02-22T09:46:03.713Z,17.16
2023-02-22T09:47:03.644Z,16.99
2023-02-22T09:48:20.748Z,16.99
2023-02-22T09:50:03.779Z,17.07
2023-02-22T09:51:03.685Z,16.88
2023-02-22T09:52:03.707Z,16.88
2023-02-22T09:53:03.676Z,16.92
2023-02-22T09:54:03.662Z,16.59
2023-02-22T09:55:03.704Z,16.30
2023-02-22T09:56:06.200Z,16.21
2023-02-22T09:57:03.736Z,15.94
2023-02-22T09:58:03.708Z,15.94
2023-02-22T09:59:03.679Z,16.36
2023-02-22T10:00:03.688Z,16.36
2023-02-22T10:01:03.738Z,17.40
2023-02-22T10:02:03.750Z,17.40
2023-02-22T10:03:03.694Z,17.80
2023-02-22T10:04:03.794Z,18.70
2023-02-22T10:05:03.763Z,19.28
2023-02-22T10:06:03.708Z,19.90
2023-02-22T10:07:03.759Z,20.63
2023-02-22T10:08:03.729Z,21.13
2023-02-22T10:09:03.708Z,21.57
2023-02-22T10:10:03.744Z,22.09
2023-02-22T10:11:03.723Z,22.53
2023-02-22T10:12:03.740Z,23.16
2023-02-22T10:13:03.782Z,23.16
2023-02-22T10:14:03.743Z,23.65
2023-02-22T10:15:03.754Z,25.04
2023-02-22T10:16:03.761Z,25.04
2023-02-22T10:17:03.772Z,25.63
2023-02-22T10:18:03.764Z,26.27
2023-02-22T10:19:03.739Z,26.43
2023-02-22T10:20:03.823Z,26.48
2023-02-22T10:21:03.802Z,26.61
2023-02-22T10:22:03.793Z,26.64
2023-02-22T10:23:03.783Z,26.64
2023-02-22T10:24:03.778Z,27.00
2023-02-22T10:25:03.792Z,27.90
2023-02-22T10:26:03.767Z,27.90
2023-02-22T10:27:03.796Z,28.67
2023-02-22T10:28:03.922Z,28.88
2023-02-22T10:29:03.783Z,28.88
2023-02-22T10:30:10.081Z,28.90
2023-02-22T10:31:03.913Z,29.12
2023-02-22T10:32:03.891Z,28.95
2023-02-22T10:33:03.837Z,29.02
2023-02-22T10:34:03.831Z,29.02
2023-02-22T10:35:03.833Z,29.41
2023-02-22T10:36:03.774Z,29.41
2023-02-22T10:37:03.811Z,29.48
2023-02-22T10:38:03.779Z,29.80
2023-02-22T10:39:03.812Z,29.80
2023-02-22T10:40:03.830Z,30.20
2023-02-22T10:41:03.818Z,30.20
2023-02-22T10:43:03.849Z,30.55
2023-02-22T10:44:03.857Z,30.16
2023-02-22T10:45:03.941Z,30.13
2023-02-22T10:46:03.878Z,30.13
2023-02-22T10:47:03.861Z,30.57
2023-02-22T10:48:03.868Z,30.86
2023-02-22T10:49:03.869Z,30.83
2023-02-22T10:50:03.860Z,31.06
2023-02-22T10:51:03.922Z,31.48
2023-02-22T10:52:03.812Z,31.48
2023-02-22T10:53:03.841Z,31.22
2023-02-22T10:54:03.876Z,31.57
2023-02-22T10:55:15.001Z,31.57
2023-02-22T10:56:03.925Z,31.68
2023-02-22T10:57:03.843Z,31.96
2023-02-22T10:59:03.880Z,32.05
2023-02-22T11:00:03.884Z,32.05
2023-02-22T11:01:03.885Z,32.23
2023-02-22T11:02:03.893Z,32.02
2023-02-22T11:03:03.898Z,32.19
2023-02-22T11:04:03.863Z,32.38
2023-02-22T11:05:03.941Z,32.61
2023-02-22T11:06:06.268Z,32.89
2023-02-22T11:07:03.890Z,32.89
2023-02-22T11:08:03.904Z,33.19
2023-02-22T11:09:03.906Z,33.42
2023-02-22T11:10:03.898Z,33.42
2023-02-22T11:11:03.886Z,33.62
2023-02-22T11:12:03.892Z,33.66
2023-02-22T11:13:03.907Z,33.96
2023-02-22T11:14:03.925Z,33.82
2023-02-22T11:15:03.916Z,34.22
2023-02-22T11:16:03.890Z,34.22
2023-02-22T11:17:03.969Z,34.41
2023-02-22T11:18:03.920Z,34.64
2023-02-22T11:19:03.894Z,34.62
2023-02-22T11:20:03.891Z,34.37
2023-02-22T11:21:03.912Z,34.35
2023-02-22T11:22:03.949Z,34.58
2023-02-22T11:23:03.979Z,34.59
2023-02-22T11:24:03.944Z,34.71
2023-02-22T11:25:03.950Z,34.83
2023-02-22T11:26:03.903Z,34.83
2023-02-22T11:27:03.939Z,34.89
2023-02-22T11:28:03.958Z,35.00
2023-02-22T11:29:03.907Z,35.00
2023-02-22T11:30:05.805Z,35.25
2023-02-22T11:32:03.977Z,35.20
2023-02-22T11:33:03.952Z,35.07
2023-02-22T11:34:04.026Z,35.31
2023-02-22T11:36:03.940Z,35.49
2023-02-22T11:38:03.948Z,35.55
2023-02-22T11:39:03.947Z,35.53
2023-02-22T11:40:03.982Z,35.58
2023-02-22T11:41:03.952Z,35.50
2023-02-22T11:43:03.981Z,35.61
2023-02-22T11:45:03.990Z,35.54
2023-02-22T11:46:04.204Z,35.65
2023-02-22T11:47:04.135Z,35.50
2023-02-22T11:48:04.227Z,35.40
2023-02-22T11:49:03.965Z,35.39
2023-02-22T11:50:03.999Z,35.65
2023-02-22T11:51:03.978Z,35.66
2023-02-22T11:52:04.014Z,35.66
2023-02-22T11:53:03.982Z,35.52
2023-02-22T11:54:03.975Z,35.72
2023-02-22T11:55:03.984Z,35.72
2023-02-22T11:56:04.023Z,35.61
2023-02-22T11:57:03.984Z,35.74
2023-02-22T11:58:04.017Z,35.74
2023-02-22T11:59:04.000Z,35.45
2023-02-22T12:01:04.025Z,35.52
2023-02-22T12:02:04.014Z,35.61
2023-02-22T12:03:03.996Z,35.35
2023-02-22T12:05:04.028Z,35.47
2023-02-22T12:06:04.037Z,35.46
2023-02-22T12:09:04.094Z,35.54
2023-02-22T12:10:04.011Z,35.43
2023-02-22T12:11:04.043Z,35.62
2023-02-22T12:12:04.046Z,35.62
2023-02-22T12:13:04.020Z,35.29
2023-02-22T12:14:04.062Z,35.29
2023-02-22T12:15:04.814Z,35.16
2023-02-22T12:16:04.099Z,35.21
2023-02-22T12:17:04.076Z,35.28
2023-02-22T12:18:04.085Z,35.20
2023-02-22T12:19:04.069Z,35.31
2023-02-22T12:21:04.071Z,34.90
2023-02-22T12:22:04.056Z,34.72
2023-02-22T12:23:04.038Z,34.72
2023-02-22T12:24:04.112Z,34.76
2023-02-22T12:25:09.438Z,34.66
2023-02-22T12:26:04.099Z,34.66
2023-02-22T12:27:05.822Z,34.44
2023-02-22T12:28:07.870Z,34.44
2023-02-22T12:29:04.128Z,34.55
2023-02-22T12:30:04.061Z,34.55
2023-02-22T12:31:04.105Z,34.83
2023-02-22T12:32:04.149Z,34.83
2023-02-22T12:33:06.235Z,34.89
2023-02-22T12:34:04.197Z,35.38
2023-02-22T12:35:04.111Z,35.48
2023-02-22T12:36:04.104Z,35.58
2023-02-22T12:37:04.082Z,35.76
2023-02-22T12:38:04.124Z,35.78
2023-02-22T12:39:06.878Z,35.31
2023-02-22T12:40:04.105Z,35.37
2023-02-22T12:41:04.115Z,35.37
2023-02-22T12:42:04.096Z,35.18
2023-02-22T12:43:04.095Z,35.04
2023-02-22T12:44:04.174Z,35.00
2023-02-22T12:45:06.820Z,34.73
2023-02-22T12:46:04.162Z,34.75
2023-02-22T12:47:04.145Z,34.75
2023-02-22T12:48:04.160Z,35.19
2023-02-22T12:49:04.144Z,35.19
2023-02-22T12:50:04.129Z,35.49
2023-02-22T12:51:04.177Z,35.49
2023-02-22T12:52:19.371Z,35.59
2023-02-22T12:53:04.132Z,35.59
2023-02-22T12:54:04.171Z,35.47
2023-02-22T12:55:04.198Z,35.54
2023-02-22T12:56:04.140Z,35.54
2023-02-22T12:57:04.148Z,35.63
2023-02-22T12:58:04.140Z,35.86
2023-02-22T12:59:04.191Z,35.86
2023-02-22T13:00:04.188Z,36.11
2023-02-22T13:01:06.702Z,36.11
2023-02-22T13:03:04.170Z,36.29
2023-02-22T13:04:19.405Z,36.39
2023-02-22T13:05:04.188Z,36.39
2023-02-22T13:06:04.195Z,36.40
2023-02-22T13:07:04.206Z,36.58
2023-02-22T13:08:04.214Z,36.49
2023-02-22T13:09:04.163Z,36.52
2023-02-22T13:10:04.224Z,36.64
2023-02-22T13:11:04.215Z,36.64
2023-02-22T13:13:04.223Z,35.85
2023-02-22T13:14:04.220Z,35.85
2023-02-22T13:15:04.264Z,35.81
2023-02-22T13:16:04.200Z,35.78
2023-02-22T13:17:04.192Z,35.78
2023-02-22T13:18:04.200Z,35.51
2023-02-22T13:19:04.442Z,35.51
2023-02-22T13:20:04.265Z,35.54
2023-02-22T13:21:04.212Z,35.88
2023-02-22T13:22:04.237Z,35.88
2023-02-22T13:23:04.208Z,35.98
2023-02-22T13:25:04.250Z,36.05
2023-02-22T13:26:04.232Z,36.40
2023-02-22T13:27:04.243Z,36.14
2023-02-22T13:28:04.242Z,36.14
2023-02-22T13:29:04.259Z,36.36
2023-02-22T13:30:04.226Z,36.33
2023-02-22T13:31:04.294Z,36.36
2023-02-22T13:32:04.300Z,36.33
2023-02-22T13:33:04.311Z,36.35
2023-02-22T13:34:04.233Z,36.06
2023-02-22T13:35:04.273Z,36.00
2023-02-22T13:36:04.480Z,36.12
2023-02-22T13:37:04.274Z,36.12
2023-02-22T13:38:04.263Z,35.95
2023-02-22T13:39:04.273Z,35.95
2023-02-22T13:40:04.286Z,36.30
2023-02-22T13:41:04.242Z,35.93
2023-02-22T13:42:04.288Z,35.93
2023-02-22T13:43:04.327Z,35.75
2023-02-22T13:44:04.280Z,35.75
2023-02-22T13:45:04.307Z,36.18
2023-02-22T13:46:04.393Z,36.18
2023-02-22T13:47:04.310Z,36.23
2023-02-22T13:48:04.275Z,36.19
2023-02-22T13:49:04.315Z,35.86
2023-02-22T13:50:04.270Z,36.01
2023-02-22T13:51:04.278Z,36.01
2023-02-22T13:52:04.274Z,35.79
2023-02-22T13:53:04.371Z,35.93
2023-02-22T13:54:04.290Z,36.01
2023-02-22T13:55:04.327Z,36.15
2023-02-22T13:56:04.277Z,36.15
2023-02-22T13:57:04.292Z,36.54
2023-02-22T13:58:04.394Z,36.38
2023-02-22T13:59:04.290Z,36.20
2023-02-22T14:00:04.296Z,36.20
2023-02-22T14:01:04.374Z,36.27
2023-02-22T14:02:04.340Z,36.27
2023-02-22T14:03:04.303Z,36.40
2023-02-22T14:04:04.298Z,36.48
2023-02-22T14:05:04.391Z,36.48
2023-02-22T14:06:04.392Z,36.54
2023-02-22T14:07:04.353Z,36.54
2023-02-22T14:09:04.359Z,36.42
2023-02-22T14:10:04.355Z,36.48
2023-02-22T14:11:04.326Z,36.27
2023-02-22T14:12:04.350Z,36.28
2023-02-22T14:14:04.358Z,36.49
2023-02-22T14:15:04.370Z,36.45
2023-02-22T14:16:04.418Z,36.45
2023-02-22T14:17:04.342Z,36.53
2023-02-22T14:18:04.345Z,36.78
2023-02-22T14:19:04.420Z,36.70
2023-02-22T14:20:04.396Z,36.70
2023-02-22T14:22:04.389Z,36.93
2023-02-22T14:28:04.408Z,36.90
2023-02-22T14:29:04.389Z,36.91
2023-02-22T14:30:04.365Z,37.04
2023-02-22T14:31:04.497Z,37.04
2023-02-22T14:32:04.500Z,37.19
2023-02-22T14:33:04.379Z,37.19
2023-02-22T14:35:06.306Z,37.12
2023-02-22T14:37:04.420Z,37.46
2023-02-22T14:39:04.433Z,37.77
2023-02-22T14:40:04.452Z,37.61
2023-02-22T14:41:04.450Z,37.61
2023-02-22T14:43:04.456Z,37.79
2023-02-22T14:44:04.456Z,37.79
2023-02-22T14:45:04.464Z,37.72
2023-02-22T14:47:04.461Z,37.89
2023-02-22T14:48:04.552Z,37.86
2023-02-22T14:49:04.454Z,37.95
2023-02-22T14:50:04.548Z,37.89
2023-02-22T14:51:19.096Z,37.98
2023-02-22T14:52:04.462Z,37.98
2023-02-22T14:55:04.595Z,37.96
2023-02-22T14:56:04.444Z,37.94
2023-02-22T14:57:04.475Z,38.15
2023-02-22T14:58:04.473Z,38.15
2023-02-22T14:59:04.485Z,38.33